Time;durP1;ratioP1;P1;durP2;ratioP2;P2;SDS_P1;SDS_P2;PMS_P1;PMS_P2;Temp;Humidity;BMP_temperature;BMP_pressure;BME280_temperature;BME280_humidity;BME280_pressure;Samples;Min_cycle;Max_cycle;Signal;HPM_P1;HPM_P2
2023/04/14 00:01:27;;;;;;;3.17;0.80;;;6.50;99.90;;;;;;5060471;28;20491;-37
2023/04/14 00:03:53;;;;;;;3.63;1.15;;;6.40;99.90;;;;;;5063234;28;20059;-36
2023/04/14 00:06:19;;;;;;;3.70;0.82;;;;;;;;;;5063186;28;20068;-35
2023/04/14 00:08:45;;;;;;;2.88;0.85;;;6.40;99.90;;;;;;5062716;28;20128;-35
2023/04/14 00:11:10;;;;;;;5.15;0.88;;;6.30;99.90;;;;;;5060807;28;20040;-35
2023/04/14 00:13:36;;;;;;;3.60;0.60;;;6.30;99.90;;;;;;5059987;28;20473;-35
2023/04/14 00:16:01;;;;;;;6.40;1.40;;;6.20;99.90;;;;;;5063844;28;20063;-35
2023/04/14 00:18:27;;;;;;;2.55;0.60;;;6.30;99.90;;;;;;5064472;28;20119;-36
2023/04/14 00:20:53;;;;;;;1.40;0.55;;;6.20;99.90;;;;;;5062699;28;20074;-35
2023/04/14 00:23:19;;;;;;;2.42;0.50;;;6.20;99.90;;;;;;5065012;28;20052;-36
2023/04/14 00:25:45;;;;;;;2.08;0.77;;;6.20;99.90;;;;;;5061843;28;20069;-36
2023/04/14 00:28:11;;;;;;;4.13;0.85;;;6.10;99.90;;;;;;5066156;28;20056;-35
2023/04/14 00:30:37;;;;;;;2.88;0.80;;;6.10;99.90;;;;;;5066279;28;20085;-35
2023/04/14 00:33:02;;;;;;;2.28;0.68;;;6.10;99.90;;;;;;5067066;28;20102;-35
2023/04/14 00:35:28;;;;;;;3.13;0.68;;;6.10;99.90;;;;;;5067497;28;20115;-36
2023/04/14 00:37:55;;;;;;;3.03;0.80;;;6.00;99.90;;;;;;5068483;28;20052;-36
2023/04/14 00:40:21;;;;;;;3.75;0.90;;;6.00;99.90;;;;;;5064386;28;20434;-36
2023/04/14 00:42:47;;;;;;;3.28;1.00;;;6.00;99.90;;;;;;5066841;28;20083;-35
2023/04/14 00:45:13;;;;;;;3.47;0.98;;;6.00;99.90;;;;;;5061864;28;20110;-35
2023/04/14 00:47:41;;;;;;;2.50;0.88;;;6.00;99.90;;;;;;5065319;28;20056;-36
2023/04/14 00:50:09;;;;;;;2.38;0.65;;;6.00;99.90;;;;;;5066574;28;20513;-36
2023/04/14 00:52:36;;;;;;;3.60;1.00;;;6.00;99.90;;;;;;5064765;28;20049;-36
2023/04/14 00:55:03;;;;;;;4.00;1.10;;;6.00;99.90;;;;;;5068669;28;20079;-35
2023/04/14 00:57:30;;;;;;;3.10;1.10;;;5.90;99.90;;;;;;5062970;28;20049;-36
2023/04/14 00:59:58;;;;;;;4.07;0.77;;;5.90;99.90;;;;;;5066547;28;20040;-36
2023/04/14 01:02:24;;;;;;;4.25;0.90;;;5.80;99.90;;;;;;5060717;28;20131;-36
2023/04/14 01:04:50;;;;;;;3.13;0.95;;;5.80;99.90;;;;;;5069060;28;20059;-36
2023/04/14 01:07:18;;;;;;;2.72;0.90;;;5.80;99.90;;;;;;5067849;28;20051;-35
2023/04/14 01:09:44;;;;;;;3.97;1.10;;;5.80;99.90;;;;;;5065577;28;20518;-36
2023/04/14 01:12:28;;;;;;;3.30;1.00;;;5.70;99.90;;;;;;5064690;28;20109;-36
2023/04/14 01:15:07;;;;;;;7.32;1.55;;;5.70;99.90;;;;;;5067223;28;20075;-36
2023/04/14 01:17:44;;;;;;;4.18;1.40;;;5.70;99.90;;;;;;5065542;28;20056;-35
2023/04/14 01:20:27;;;;;;;6.28;1.80;;;5.70;99.90;;;;;;5067391;28;20125;-35
2023/04/14 01:22:55;;;;;;;;;;;5.70;99.90;;;;;;5067771;28;20048;-36
2023/04/14 01:25:58;;;;;;;4.30;1.10;;;5.70;99.90;;;;;;5068736;28;19964;-35
2023/04/14 01:28:36;;;;;;;2.10;0.85;;;5.60;99.90;;;;;;5065245;28;20510;-36
2023/04/14 01:31:33;;;;;;;3.95;0.90;;;5.60;99.90;;;;;;5066414;28;20080;-36
2023/04/14 01:34:09;;;;;;;5.65;1.27;;;5.50;99.90;;;;;;5069305;28;20053;-35
2023/04/14 01:36:53;;;;;;;3.13;0.85;;;5.50;99.90;;;;;;5064946;28;20501;-35
2023/04/14 01:39:23;;;;;;;3.05;0.85;;;5.40;99.90;;;;;;5063541;28;20054;-36
2023/04/14 01:41:54;;;;;;;4.43;0.90;;;5.40;99.90;;;;;;5061583;28;20539;-35
2023/04/14 01:44:22;;;;;;;4.07;1.23;;;5.30;99.90;;;;;;5062568;28;20044;-36
2023/04/14 01:46:50;;;;;;;2.75;1.00;;;5.20;99.90;;;;;;5066721;28;20123;-35
2023/04/14 01:49:19;;;;;;;4.70;1.45;;;5.20;99.90;;;;;;5042921;28;20102;-35
2023/04/14 01:51:46;;;;;;;6.15;1.58;;;5.20;99.90;;;;;;5067006;28;20110;-36
2023/04/14 01:54:16;;;;;;;3.60;1.25;;;5.20;99.90;;;;;;5066768;28;20083;-35
2023/04/14 01:56:43;;;;;;;6.25;1.70;;;5.20;99.90;;;;;;5063955;28;20044;-36
2023/04/14 01:59:10;;;;;;;3.25;1.30;;;5.20;99.90;;;;;;5061870;28;20048;-35
2023/04/14 02:01:38;;;;;;;3.88;1.20;;;5.20;99.90;;;;;;5059057;28;20051;-36
2023/04/14 02:04:06;;;;;;;4.15;1.20;;;5.20;99.90;;;;;;5059858;28;20157;-35
2023/04/14 02:06:34;;;;;;;4.15;1.40;;;5.20;99.90;;;;;;5062096;28;21638;-36
2023/04/14 02:09:01;;;;;;;3.95;1.30;;;5.20;99.90;;;;;;5065132;28;20055;-35
2023/04/14 02:11:28;;;;;;;4.03;1.10;;;5.20;99.90;;;;;;5047648;28;20102;-35
2023/04/14 02:13:55;;;;;;;3.58;1.20;;;5.20;99.90;;;;;;5066132;28;20049;-35
2023/04/14 02:16:22;;;;;;;5.68;1.40;;;5.20;99.90;;;;;;5068901;28;20040;-36
2023/04/14 02:18:49;;;;;;;4.82;1.15;;;5.20;99.90;;;;;;5064481;28;20467;-35
2023/04/14 02:21:17;;;;;;;2.33;0.90;;;5.20;99.90;;;;;;5066501;28;20048;-36
2023/04/14 02:23:43;;;;;;;8.07;1.27;;;5.20;99.90;;;;;;5053765;28;20055;-35
2023/04/14 02:26:17;;;;;;;4.75;1.00;;;5.20;99.90;;;;;;5066844;28;20053;-35
2023/04/14 02:28:57;;;;;;;2.28;0.80;;;5.10;99.90;;;;;;5066437;28;20462;-35
2023/04/14 02:31:25;;;;;;;2.97;0.93;;;5.10;99.90;;;;;;5065475;28;20055;-35
2023/04/14 02:33:53;;;;;;;5.85;1.10;;;5.10;99.90;;;;;;5067339;28;20428;-36
2023/04/14 02:36:42;;;;;;;3.08;1.00;;;5.10;99.90;;;;;;5067264;28;20044;-35
2023/04/14 02:39:14;;;;;;;4.18;1.20;;;5.00;99.90;;;;;;5062938;28;20144;-37
2023/04/14 02:41:42;;;;;;;7.00;1.35;;;5.00;99.90;;;;;;5048798;28;20055;-35
2023/04/14 02:44:27;;;;;;;4.90;1.40;;;4.90;99.90;;;;;;5067699;28;20563;-35
2023/04/14 02:47:10;;;;;;;6.63;1.13;;;4.90;99.90;;;;;;5065670;28;20040;-35
2023/04/14 02:49:39;;;;;;;2.10;1.02;;;4.80;99.90;;;;;;5060561;28;20044;-35
2023/04/14 02:52:08;;;;;;;8.38;1.17;;;4.80;99.90;;;;;;5064124;28;20063;-35
2023/04/14 02:54:37;;;;;;;6.10;1.13;;;4.80;99.90;;;;;;5072900;28;20100;-36
2023/04/14 02:57:03;;;;;;;4.80;0.70;;;4.80;99.90;;;;;;5065825;28;20056;-35
2023/04/14 02:59:30;;;;;;;6.00;1.48;;;4.80;99.90;;;;;;5062559;28;20052;-35
2023/04/14 03:02:00;;;;;;;4.05;1.13;;;4.80;99.90;;;;;;5065635;28;20494;-35
2023/04/14 03:04:28;;;;;;;4.65;1.30;;;4.80;99.90;;;;;;5063578;28;20052;-35
2023/04/14 03:06:55;;;;;;;5.57;1.33;;;4.80;99.90;;;;;;5061102;28;20051;-35
2023/04/14 03:09:21;;;;;;;2.40;0.82;;;4.80;99.90;;;;;;5066583;28;20105;-35
2023/04/14 03:11:49;;;;;;;4.85;1.00;;;4.90;99.90;;;;;;5067631;28;20498;-35
2023/04/14 03:14:18;;;;;;;8.90;1.30;;;4.80;99.90;;;;;;5063272;28;20060;-36
2023/04/14 03:16:45;;;;;;;2.40;0.90;;;4.80;99.90;;;;;;5067984;28;20565;-35
2023/04/14 03:19:12;;;;;;;4.05;0.93;;;4.70;99.90;;;;;;5064311;28;20044;-35
2023/04/14 03:21:38;;;;;;;3.38;0.85;;;4.70;99.90;;;;;;5056570;28;20155;-37
2023/04/14 03:24:05;;;;;;;4.75;1.00;;;4.70;99.90;;;;;;5065512;28;20143;-35
2023/04/14 03:26:33;;;;;;;5.00;1.10;;;4.70;99.90;;;;;;5062724;28;20067;-35
2023/04/14 03:29:01;;;;;;;3.20;0.95;;;4.70;99.90;;;;;;5065723;28;20041;-36
2023/04/14 03:31:35;;;;;;;5.95;1.00;;;4.60;99.90;;;;;;5064775;28;20048;-35
2023/04/14 03:34:04;;;;;;;4.10;1.13;;;4.60;99.90;;;;;;5061070;28;20119;-35
2023/04/14 03:36:31;;;;;;;4.30;1.10;;;4.60;99.90;;;;;;5060475;28;20418;-35
2023/04/14 03:39:00;;;;;;;5.00;1.10;;;4.50;99.90;;;;;;5063040;28;20075;-35
2023/04/14 03:41:28;;;;;;;3.45;0.98;;;4.50;99.90;;;;;;5067448;28;20129;-36
2023/04/14 03:43:55;;;;;;;5.80;1.00;;;4.50;99.90;;;;;;5065702;28;20402;-35
2023/04/14 03:46:23;;;;;;;2.60;0.75;;;4.40;99.90;;;;;;5070805;28;20056;-35
2023/04/14 03:48:51;;;;;;;3.53;1.08;;;4.40;99.90;;;;;;5064298;28;20058;-35
2023/04/14 03:51:19;;;;;;;4.82;0.90;;;4.40;99.90;;;;;;5064862;28;20045;-35
2023/04/14 03:53:46;;;;;;;4.30;0.98;;;4.40;99.90;;;;;;5064200;28;20555;-37
2023/04/14 03:56:13;;;;;;;2.65;0.90;;;4.40;99.90;;;;;;5064679;28;20064;-35
2023/04/14 03:58:42;;;;;;;5.00;1.10;;;4.40;99.90;;;;;;5062282;28;20044;-35
2023/04/14 04:01:08;;;;;;;3.80;1.10;;;4.40;99.90;;;;;;5064057;28;20051;-37
2023/04/14 04:03:37;;;;;;;4.05;1.10;;;4.40;99.90;;;;;;5073233;28;20060;-35
2023/04/14 04:06:04;;;;;;;5.35;1.50;;;4.40;99.90;;;;;;5068621;28;20481;-35
2023/04/14 04:08:32;;;;;;;4.70;1.10;;;4.40;99.90;;;;;;5065573;28;20502;-36
2023/04/14 04:11:00;;;;;;;3.63;1.10;;;4.40;99.90;;;;;;5066626;28;20481;-35
2023/04/14 04:13:27;;;;;;;4.43;1.10;;;4.40;99.90;;;;;;5065824;28;20103;-35
2023/04/14 04:15:54;;;;;;;5.03;1.42;;;4.40;99.90;;;;;;5068575;28;20147;-35
2023/04/14 04:18:24;;;;;;;5.38;1.33;;;4.30;99.90;;;;;;5063470;28;20121;-35
2023/04/14 04:20:52;;;;;;;4.00;1.40;;;4.40;99.90;;;;;;5064493;28;20056;-36
2023/04/14 04:23:20;;;;;;;5.97;1.20;;;4.40;99.90;;;;;;5067015;28;20571;-35
2023/04/14 04:25:46;;;;;;;4.53;1.40;;;4.30;99.90;;;;;;5062785;28;20117;-35
2023/04/14 04:28:12;;;;;;;3.25;1.42;;;4.40;99.90;;;;;;5043164;28;20052;-35
2023/04/14 04:30:42;;;;;;;4.20;1.20;;;4.40;99.90;;;;;;5066725;28;21838;-35
2023/04/14 04:33:09;;;;;;;6.80;1.48;;;4.40;99.90;;;;;;5063718;28;20131;-35
2023/04/14 04:35:36;;;;;;;3.80;1.48;;;4.40;99.90;;;;;;5046820;28;20059;-35
2023/04/14 04:38:03;;;;;;;2.67;1.15;;;4.40;99.90;;;;;;5063029;28;20111;-35
2023/04/14 04:40:36;;;;;;;4.13;1.45;;;4.30;99.90;;;;;;5054615;28;20869;-35
2023/04/14 04:43:02;;;;;;;6.57;1.80;;;4.30;99.90;;;;;;5065039;28;20052;-36
2023/04/14 04:45:49;;;;;;;3.17;1.45;;;4.30;99.90;;;;;;5062092;28;20075;-35
2023/04/14 04:48:14;;;;;;;3.42;1.40;;;4.30;99.90;;;;;;5058620;28;20056;-35
2023/04/14 04:50:41;;;;;;;3.50;1.38;;;4.30;99.90;;;;;;5066249;28;20102;-36
2023/04/14 04:53:06;;;;;;;7.32;1.67;;;4.30;99.90;;;;;;5063343;28;20083;-35
2023/04/14 04:55:32;;;;;;;5.50;1.40;;;4.30;99.90;;;;;;5070443;28;20044;-35
2023/04/14 04:57:57;;;;;;;5.88;1.35;;;4.30;99.90;;;;;;5069821;28;20052;-35
2023/04/14 05:00:25;;;;;;;4.78;1.20;;;4.30;99.90;;;;;;5059823;28;20456;-36
2023/04/14 05:02:50;;;;;;;7.82;1.27;;;4.30;99.90;;;;;;5067666;28;20056;-35
2023/04/14 05:05:16;;;;;;;4.75;1.48;;;4.30;99.90;;;;;;5068499;28;20095;-35
2023/04/14 05:07:42;;;;;;;6.30;1.38;;;4.20;99.90;;;;;;5069758;28;20060;-35
2023/04/14 05:10:08;;;;;;;5.95;1.63;;;4.20;99.90;;;;;;5045038;28;20059;-36
2023/04/14 05:12:33;;;;;;;6.30;1.48;;;4.20;99.90;;;;;;5067728;28;20090;-35
2023/04/14 05:14:59;;;;;;;5.55;1.60;;;4.30;99.90;;;;;;5069964;28;20052;-35
2023/04/14 05:17:25;;;;;;;4.28;1.50;;;4.30;99.90;;;;;;5060761;28;20056;-35
2023/04/14 05:19:50;;;;;;;9.40;2.15;;;4.30;99.90;;;;;;5065589;28;20214;-35
2023/04/14 05:22:16;;;;;;;6.53;1.55;;;4.30;99.90;;;;;;5065497;28;20525;-36
2023/04/14 05:24:48;;;;;;;3.60;1.65;;;4.30;99.90;;;;;;5068588;28;20510;-36
2023/04/14 05:27:13;;;;;;;9.80;2.45;;;4.30;99.90;;;;;;5067217;28;20391;-35
2023/04/14 05:29:39;;;;;;;5.05;1.23;;;4.40;99.90;;;;;;5067645;28;20154;-36
2023/04/14 05:32:05;;;;;;;4.57;1.20;;;4.40;99.90;;;;;;5065533;28;20051;-35
2023/04/14 05:34:31;;;;;;;7.40;1.48;;;4.40;99.90;;;;;;5064816;28;20421;-36
2023/04/14 05:36:57;;;;;;;4.93;1.90;;;4.40;99.90;;;;;;5063943;28;20055;-35
2023/04/14 05:39:22;;;;;;;3.42;1.67;;;4.50;99.90;;;;;;5060331;28;20052;-35
2023/04/14 05:41:48;;;;;;;4.70;1.75;;;4.60;99.90;;;;;;5065554;28;20074;-38
2023/04/14 05:44:14;;;;;;;5.00;1.60;;;4.60;99.90;;;;;;5064441;28;20060;-38
2023/04/14 05:46:40;;;;;;;8.15;1.80;;;4.70;99.90;;;;;;5065621;28;20147;-37
2023/04/14 05:49:06;;;;;;;9.32;2.53;;;4.70;99.90;;;;;;5064829;28;20044;-38
2023/04/14 05:51:31;;;;;;;6.05;1.88;;;4.80;99.90;;;;;;5066809;28;20074;-38
2023/04/14 05:53:57;;;;;;;5.20;1.70;;;4.90;99.90;;;;;;5062125;28;20056;-38
2023/04/14 05:56:23;;;;;;;6.18;1.65;;;4.90;99.90;;;;;;5059241;28;20147;-38
2023/04/14 05:58:50;;;;;;;4.13;1.60;;;5.00;99.90;;;;;;5062589;28;20131;-38
2023/04/14 06:01:16;;;;;;;6.18;2.13;;;5.00;99.90;;;;;;5059339;28;20052;-38
2023/04/14 06:03:41;;;;;;;7.28;1.70;;;5.10;99.90;;;;;;5062196;28;20094;-38
2023/04/14 06:06:07;;;;;;;5.97;1.50;;;5.20;99.90;;;;;;5058014;28;20048;-38
2023/04/14 06:08:33;;;;;;;6.45;2.50;;;5.30;99.90;;;;;;5062100;28;20452;-38
2023/04/14 06:10:58;;;;;;;7.25;2.58;;;5.40;99.90;;;;;;5070364;28;20419;-38
2023/04/14 06:13:24;;;;;;;5.78;2.10;;;5.50;99.90;;;;;;5065240;28;20084;-38
2023/04/14 06:15:50;;;;;;;5.60;2.25;;;5.50;99.90;;;;;;5068027;28;20052;-38
2023/04/14 06:18:16;;;;;;;8.82;2.72;;;5.60;99.90;;;;;;5061293;28;20043;-38
2023/04/14 06:20:41;;;;;;;7.13;2.25;;;5.70;99.90;;;;;;5060403;28;20541;-39
2023/04/14 06:23:07;;;;;;;6.35;2.17;;;5.70;99.90;;;;;;5066943;28;20567;-38
2023/04/14 06:25:33;;;;;;;7.13;2.33;;;5.80;99.90;;;;;;5067046;28;20060;-38
2023/04/14 06:28:02;;;;;;;8.65;2.25;;;5.80;99.90;;;;;;5065217;28;20048;-38
2023/04/14 06:30:28;;;;;;;10.13;3.17;;;5.90;99.90;;;;;;5060675;28;20052;-38
2023/04/14 06:32:54;;;;;;;8.70;2.72;;;6.00;99.90;;;;;;5058435;28;20092;-40
2023/04/14 06:35:20;;;;;;;9.77;2.50;;;6.00;99.90;;;;;;5062331;28;20380;-38
2023/04/14 06:37:45;;;;;;;4.13;1.95;;;6.10;99.90;;;;;;5056418;28;20054;-38
2023/04/14 06:40:11;;;;;;;9.50;2.30;;;6.20;99.90;;;;;;5049299;28;20136;-39
2023/04/14 06:42:37;;;;;;;7.72;2.40;;;6.20;99.90;;;;;;5056573;28;20139;-38
2023/04/14 06:45:03;;;;;;;6.32;2.53;;;6.30;99.90;;;;;;5065187;28;20063;-38
2023/04/14 06:47:28;;;;;;;8.27;2.25;;;6.30;99.90;;;;;;5067512;28;20114;-38
2023/04/14 06:49:54;;;;;;;16.45;3.10;;;6.40;99.90;;;;;;5067094;28;20154;-38
2023/04/14 06:52:20;;;;;;;7.03;2.08;;;6.40;99.90;;;;;;5064627;28;20097;-39
2023/04/14 06:54:45;;;;;;;6.25;2.20;;;6.50;99.90;;;;;;5065990;28;20422;-39
2023/04/14 06:57:11;;;;;;;6.88;2.75;;;6.60;99.90;;;;;;5058575;28;20063;-38
2023/04/14 06:59:37;;;;;;;6.03;2.33;;;6.60;99.90;;;;;;5069131;28;20048;-38
2023/04/14 07:02:03;;;;;;;5.97;2.08;;;6.70;99.90;;;;;;5068530;28;20055;-38
2023/04/14 07:04:29;;;;;;;6.90;2.53;;;6.80;99.90;;;;;;5069259;28;20056;-38
2023/04/14 07:06:59;;;;;;;4.68;1.85;;;6.90;99.90;;;;;;5073688;28;20052;-38
2023/04/14 07:09:25;;;;;;;7.43;2.17;;;6.90;99.90;;;;;;5062428;28;20083;-38
2023/04/14 07:11:52;;;;;;;7.07;1.80;;;7.00;99.90;;;;;;5064731;28;20072;-38
2023/04/14 07:14:18;;;;;;;6.85;2.10;;;7.10;99.90;;;;;;5060066;28;20159;-38
2023/04/14 07:16:43;;;;;;;4.97;1.70;;;7.20;99.90;;;;;;5060584;28;20060;-38
2023/04/14 07:19:09;;;;;;;6.30;2.17;;;7.30;99.90;;;;;;5061188;28;20881;-37
2023/04/14 07:21:36;;;;;;;8.27;2.38;;;7.40;99.90;;;;;;5056926;28;20520;-38
2023/04/14 07:24:03;;;;;;;6.32;2.13;;;7.40;99.90;;;;;;5028168;28;20147;-38
2023/04/14 07:26:29;;;;;;;5.47;1.83;;;7.50;99.90;;;;;;5047523;28;20088;-39
2023/04/14 07:28:55;;;;;;;9.48;2.03;;;7.60;99.90;;;;;;5063148;28;20417;-38
2023/04/14 07:31:21;;;;;;;6.45;2.28;;;7.70;99.90;;;;;;5058883;28;20047;-38
2023/04/14 07:33:47;;;;;;;6.50;2.05;;;7.80;99.90;;;;;;5060641;28;20044;-37
2023/04/14 07:36:12;;;;;;;7.70;2.17;;;7.90;99.90;;;;;;5061053;28;20052;-38
2023/04/14 07:38:38;;;;;;;8.93;2.08;;;8.00;99.90;;;;;;5063046;28;21543;-39
2023/04/14 07:41:05;;;;;;;6.85;1.90;;;8.10;99.90;;;;;;5068439;28;20049;-39
2023/04/14 07:43:34;;;;;;;4.10;1.20;;;8.30;99.90;;;;;;5061899;28;20061;-38
2023/04/14 07:46:05;;;;;;;5.00;1.45;;;8.30;99.90;;;;;;5070019;28;20056;-39
2023/04/14 07:48:36;;;;;;;5.78;1.80;;;8.40;99.90;;;;;;5068018;28;20056;-39
2023/04/14 07:51:03;;;;;;;5.50;1.90;;;8.50;99.90;;;;;;5065284;28;20052;-39
2023/04/14 07:53:30;;;;;;;5.63;1.40;;;8.60;99.90;;;;;;5064863;28;20491;-39
2023/04/14 07:55:57;;;;;;;6.00;1.65;;;8.70;99.90;;;;;;5072222;28;20049;-39
2023/04/14 07:58:22;;;;;;;5.95;1.80;;;8.80;99.90;;;;;;5063177;28;20074;-38
2023/04/14 08:00:48;;;;;;;7.00;2.08;;;8.90;99.90;;;;;;5062379;28;20494;-39
2023/04/14 08:03:14;;;;;;;4.55;2.05;;;9.00;99.90;;;;;;5063420;28;20051;-39
2023/04/14 08:05:40;;;;;;;9.43;2.03;;;9.10;99.90;;;;;;5068683;28;20064;-39
2023/04/14 08:08:07;;;;;;;6.63;1.70;;;9.20;99.90;;;;;;5064273;28;20543;-39
2023/04/14 08:10:33;;;;;;;5.90;1.65;;;9.30;99.90;;;;;;5067379;28;20048;-39
2023/04/14 08:12:59;;;;;;;3.78;1.60;;;9.40;99.90;;;;;;5068253;28;20118;-39
2023/04/14 08:15:25;;;;;;;8.57;1.90;;;9.50;99.90;;;;;;5068392;28;20048;-38
2023/04/14 08:17:51;;;;;;;4.88;1.70;;;9.60;99.90;;;;;;5067950;28;20106;-38
2023/04/14 08:20:16;;;;;;;10.45;2.45;;;9.70;99.90;;;;;;5069985;28;20044;-39
2023/04/14 08:22:42;;;;;;;9.95;2.40;;;9.80;99.90;;;;;;5069792;28;20520;-39
2023/04/14 08:25:11;;;;;;;7.72;1.63;;;9.90;99.90;;;;;;5075276;28;20413;-41
2023/04/14 08:27:37;;;;;;;4.90;1.73;;;10.00;99.90;;;;;;5068051;28;20052;-39
2023/04/14 08:30:04;;;;;;;8.20;2.15;;;10.10;99.90;;;;;;5077274;28;20147;-39
2023/04/14 08:32:30;;;;;;;6.22;1.90;;;10.10;99.90;;;;;;5069169;28;20063;-39
2023/04/14 08:34:56;;;;;;;8.07;1.83;;;10.20;99.90;;;;;;5067767;28;20486;-39
2023/04/14 08:37:22;;;;;;;4.68;1.17;;;10.30;99.90;;;;;;5070210;28;20118;-40
2023/04/14 08:39:48;;;;;;;9.43;1.60;;;10.50;99.90;;;;;;5068121;28;20430;-38
2023/04/14 08:42:15;;;;;;;3.70;1.70;;;10.50;99.90;;;;;;5064885;28;20143;-39
2023/04/14 08:44:41;;;;;;;3.95;1.50;;;10.60;99.90;;;;;;5071974;28;20059;-39
2023/04/14 08:47:07;;;;;;;4.57;1.83;;;10.70;99.90;;;;;;5068776;28;20122;-40
2023/04/14 08:49:50;;;;;;;4.97;1.50;;;10.80;99.90;;;;;;5067050;28;20052;-39
2023/04/14 08:52:20;;;;;;;4.63;1.40;;;10.90;99.90;;;;;;5068312;28;20052;-39
2023/04/14 08:54:48;;;;;;;5.15;1.80;;;11.00;99.90;;;;;;5064078;28;20052;-40
2023/04/14 08:57:18;;;;;;;3.03;1.40;;;11.10;99.90;;;;;;5070459;28;20521;-39
2023/04/14 08:59:44;;;;;;;4.72;1.55;;;11.10;99.90;;;;;;5067473;28;20058;-38
2023/04/14 09:02:11;;;;;;;6.15;1.80;;;11.20;99.90;;;;;;5067943;28;20127;-40
2023/04/14 09:04:38;;;;;;;6.68;1.10;;;11.30;99.90;;;;;;5068683;28;20512;-40
2023/04/14 09:07:04;;;;;;;6.45;1.55;;;11.40;99.90;;;;;;5066718;28;20080;-40
2023/04/14 09:09:30;;;;;;;5.45;1.45;;;11.50;99.90;;;;;;5068753;28;20187;-39
2023/04/14 09:11:57;;;;;;;6.70;1.27;;;11.50;99.90;;;;;;5062824;28;20585;-39
2023/04/14 09:14:23;;;;;;;4.78;1.50;;;11.50;99.90;;;;;;5067297;28;20057;-39
2023/04/14 09:16:52;;;;;;;3.33;1.08;;;11.60;99.90;;;;;;5064059;28;20048;-40
2023/04/14 09:19:20;;;;;;;3.60;0.90;;;11.70;99.90;;;;;;5047101;28;20139;-40
2023/04/14 09:21:45;;;;;;;3.47;0.90;;;11.70;99.90;;;;;;5062395;28;20496;-41
2023/04/14 09:24:11;;;;;;;5.78;1.10;;;11.80;99.90;;;;;;5066110;28;20052;-39
2023/04/14 09:26:37;;;;;;;3.72;0.85;;;11.90;99.90;;;;;;5064031;28;20195;-39
2023/04/14 09:29:03;;;;;;;5.90;1.40;;;11.90;99.90;;;;;;5064032;28;20059;-40
2023/04/14 09:31:29;;;;;;;2.45;0.90;;;12.00;99.90;;;;;;5060739;28;20074;-41
2023/04/14 09:33:55;;;;;;;5.07;1.10;;;12.10;99.90;;;;;;5065147;28;20048;-40
2023/04/14 09:36:23;;;;;;;3.80;1.05;;;12.20;99.90;;;;;;5065063;28;20052;-41
2023/04/14 09:38:50;;;;;;;4.35;1.20;;;12.20;99.90;;;;;;5062972;28;20074;-40
2023/04/14 09:41:21;;;;;;;3.97;1.42;;;12.30;99.90;;;;;;5065208;28;20127;-39
2023/04/14 09:43:51;;;;;;;4.03;1.20;;;12.30;99.90;;;;;;5061710;28;20486;-40
2023/04/14 09:46:17;;;;;;;4.47;1.05;;;12.40;99.90;;;;;;5063469;28;20060;-40
2023/04/14 09:48:53;;;;;;;5.15;0.90;;;12.50;99.90;;;;;;5041943;28;22159;-39
2023/04/14 09:51:26;;;;;;;6.20;1.30;;;12.60;99.90;;;;;;5065477;28;20086;-40
2023/04/14 09:53:52;;;;;;;3.95;1.20;;;12.60;99.90;;;;;;5062086;28;20055;-39
2023/04/14 09:56:20;;;;;;;4.63;1.27;;;12.50;99.90;;;;;;5067993;28;20067;-41
2023/04/14 09:58:49;;;;;;;4.10;1.05;;;12.40;99.90;;;;;;5064705;28;20512;-40
2023/04/14 10:01:15;;;;;;;3.00;0.80;;;12.40;99.90;;;;;;5062084;28;20099;-40
2023/04/14 10:03:46;;;;;;;9.40;1.15;;;12.50;99.90;;;;;;5039426;28;20334;-39
2023/04/14 10:06:20;;;;;;;3.33;0.80;;;12.60;99.90;;;;;;5067058;28;20048;-41
2023/04/14 10:08:51;;;;;;;3.55;0.70;;;12.60;99.90;;;;;;5065294;28;20055;-40
2023/04/14 10:11:24;;;;;;;3.03;0.90;;;12.60;99.90;;;;;;5075033;28;20087;-40
2023/04/14 10:14:02;;;;;;;5.20;1.23;;;12.60;99.90;;;;;;5065330;28;20059;-40
2023/04/14 10:16:28;;;;;;;3.55;0.90;;;12.60;99.90;;;;;;5077785;28;20089;-40
2023/04/14 10:18:57;;;;;;;3.35;0.73;;;12.50;99.90;;;;;;5068719;28;20049;-42
2023/04/14 10:21:23;;;;;;;6.75;0.77;;;12.50;99.90;;;;;;5067074;28;20052;-40
2023/04/14 10:23:50;;;;;;;2.63;0.70;;;12.70;99.90;;;;;;5066392;28;20486;-40
2023/04/14 10:26:17;;;;;;;2.95;0.68;;;12.90;99.90;;;;;;5071636;28;20056;-41
2023/04/14 10:28:45;;;;;;;5.90;1.38;;;13.00;99.90;;;;;;5068278;28;20049;-40
2023/04/14 10:31:19;;;;;;;3.35;0.60;;;13.00;99.90;;;;;;5068227;28;20053;-41
2023/04/14 10:33:45;;;;;;;5.28;0.60;;;12.90;99.90;;;;;;5064917;28;20048;-40
2023/04/14 10:36:12;;;;;;;3.88;0.70;;;13.00;99.90;;;;;;5067999;28;20101;-40
2023/04/14 10:38:39;;;;;;;3.00;0.60;;;13.30;99.90;;;;;;5073478;28;20083;-40
2023/04/14 10:41:06;;;;;;;4.35;0.88;;;13.60;99.90;;;;;;5066597;28;20048;-38
2023/04/14 10:43:34;;;;;;;7.00;0.88;;;13.80;99.90;;;;;;5072520;28;20087;-41
2023/04/14 10:45:59;;;;;;;4.70;0.70;;;13.80;99.90;;;;;;5063211;28;20148;-41
2023/04/14 10:48:31;;;;;;;3.05;0.70;;;13.80;99.90;;;;;;5062573;28;20214;-43
2023/04/14 10:51:03;;;;;;;2.35;0.60;;;13.90;99.90;;;;;;5051680;28;20063;-41
2023/04/14 10:53:54;;;;;;;5.45;0.80;;;13.80;99.90;;;;;;5058801;28;20043;-40
2023/04/14 10:56:20;;;;;;;4.80;0.70;;;13.70;99.90;;;;;;5061499;28;20502;-41
2023/04/14 10:58:57;;;;;;;3.90;0.70;;;13.70;99.90;;;;;;5063644;28;20150;-40
2023/04/14 11:01:30;;;;;;;3.45;0.73;;;13.90;99.90;;;;;;5064302;28;20057;-40
2023/04/14 11:04:09;;;;;;;2.17;0.60;;;14.00;99.90;;;;;;5061261;28;20147;-40
2023/04/14 11:06:45;;;;;;;5.40;1.00;;;14.00;99.90;;;;;;5061419;28;20551;-42
2023/04/14 11:09:26;;;;;;;2.35;0.80;;;14.10;99.90;;;;;;5055748;28;20517;-40
2023/04/14 11:11:55;;;;;;;3.72;0.63;;;14.30;99.90;;;;;;5061713;28;20057;-41
2023/04/14 11:14:29;;;;;;;2.40;0.77;;;14.30;99.90;;;;;;5063929;28;20036;-39
2023/04/14 11:17:03;;;;;;;4.53;0.93;;;14.50;99.90;;;;;;5053714;28;20493;-40
2023/04/14 11:19:29;;;;;;;3.10;0.60;;;14.60;99.90;;;;;;5062593;28;20513;-41
2023/04/14 11:21:55;;;;;;;2.10;0.60;;;14.70;99.90;;;;;;5062997;28;20060;-42
2023/04/14 11:24:25;;;;;;;3.30;0.60;;;14.60;99.90;;;;;;5057129;28;20106;-41
2023/04/14 11:26:54;;;;;;;6.47;0.85;;;14.70;99.90;;;;;;5049997;28;20044;-40
2023/04/14 11:29:21;;;;;;;3.50;0.80;;;14.90;99.90;;;;;;5062554;28;20047;-41
2023/04/14 11:32:07;;;;;;;4.00;0.88;;;15.00;99.90;;;;;;5045760;28;20506;-40
2023/04/14 11:34:33;;;;;;;4.35;1.92;;;15.10;99.90;;;;;;5059724;28;20156;-42
2023/04/14 11:37:02;;;;;;;3.20;1.25;;;15.30;99.90;;;;;;5065261;28;20095;-42
2023/04/14 11:39:28;;;;;;;1.73;0.60;;;15.50;99.90;;;;;;5063798;28;20061;-42
2023/04/14 11:41:59;;;;;;;2.10;0.60;;;15.70;99.90;;;;;;5065842;28;20052;-40
2023/04/14 11:44:24;;;;;;;2.97;1.00;;;15.80;99.90;;;;;;5066624;28;20558;-40
2023/04/14 11:46:50;;;;;;;4.43;1.02;;;15.80;99.90;;;;;;5056574;28;20195;-37
2023/04/14 11:49:16;;;;;;;5.00;1.00;;;16.00;99.90;;;;;;5054960;28;20045;-41
2023/04/14 11:51:42;;;;;;;3.53;0.85;;;16.00;99.90;;;;;;5051923;28;20029;-42
2023/04/14 11:54:11;;;;;;;2.33;0.70;;;16.00;99.90;;;;;;5053518;28;20049;-45
2023/04/14 11:56:36;;;;;;;4.32;1.02;;;16.00;99.90;;;;;;5060159;28;20079;-40
2023/04/14 11:59:04;;;;;;;5.90;1.42;;;15.80;99.90;;;;;;5059875;28;20106;-40
2023/04/14 12:01:30;;;;;;;4.75;0.88;;;15.50;99.90;;;;;;5063126;28;20139;-41
2023/04/14 12:03:57;;;;;;;2.03;0.60;;;15.50;99.90;;;;;;5043242;28;20064;-40
2023/04/14 12:06:25;;;;;;;5.15;1.08;;;15.50;99.90;;;;;;5059119;28;20052;-41
2023/04/14 12:08:52;;;;;;;4.00;0.90;;;15.60;99.90;;;;;;5053687;28;20486;-41
2023/04/14 12:11:18;;;;;;;3.58;0.82;;;15.90;99.90;;;;;;5057504;28;20087;-41
2023/04/14 12:13:45;;;;;;;2.42;0.63;;;16.10;99.90;;;;;;5064913;28;20048;-43
2023/04/14 12:16:13;;;;;;;3.15;0.60;;;16.20;99.90;;;;;;5064518;28;20555;-42
2023/04/14 12:18:40;;;;;;;3.22;0.65;;;16.20;99.90;;;;;;5057518;28;20498;-42
2023/04/14 12:21:06;;;;;;;3.25;0.80;;;16.20;99.90;;;;;;5054591;28;20052;-41
2023/04/14 12:23:36;;;;;;;3.00;0.95;;;16.30;99.90;;;;;;5059807;28;20049;-41
2023/04/14 12:26:02;;;;;;;3.95;0.88;;;16.40;99.90;;;;;;5059701;28;20115;-40
2023/04/14 12:28:29;;;;;;;3.05;0.80;;;16.50;99.90;;;;;;5069536;28;20441;-44
2023/04/14 12:31:02;;;;;;;3.95;0.73;;;16.60;99.90;;;;;;5065729;28;20052;-40
2023/04/14 12:33:30;;;;;;;3.75;0.90;;;16.70;99.90;;;;;;5067078;28;20552;-40
2023/04/14 12:36:08;;;;;;;2.67;0.60;;;16.90;99.90;;;;;;5065370;28;20131;-42
2023/04/14 12:38:35;;;;;;;3.47;0.70;;;;;;;;;;5069859;28;20060;-41
2023/04/14 12:41:01;;;;;;;4.38;1.05;;;17.20;99.90;;;;;;5067110;28;20186;-43
2023/04/14 12:43:33;;;;;;;3.90;0.63;;;17.10;99.90;;;;;;5070056;28;20493;-42
2023/04/14 12:46:00;;;;;;;4.03;0.70;;;16.90;99.90;;;;;;5062452;28;20064;-40
2023/04/14 12:48:45;;;;;;;2.45;0.60;;;16.60;99.90;;;;;;5060659;28;20513;-41
2023/04/14 12:51:16;;;;;;;4.18;0.90;;;16.60;99.90;;;;;;5061107;28;20103;-42
2023/04/14 12:53:43;;;;;;;2.22;0.65;;;16.80;99.90;;;;;;5063627;28;20044;-42
2023/04/14 12:56:18;;;;;;;3.00;0.50;;;16.90;99.90;;;;;;5065833;28;20059;-41
2023/04/14 12:58:45;;;;;;;2.83;0.50;;;17.00;99.90;;;;;;5065392;28;20052;-41
2023/04/14 13:01:12;;;;;;;3.30;0.60;;;17.20;99.90;;;;;;5054391;28;20125;-41